Portada
METAR-TAF:

METAR-TAF

Aeropuertos :

Kélibia, Túnez

latitud: 36-51N, longitud: 011-05E, altitud: 29 m

Observación

El informe se hizo hace 45 minutos, a las 17:00 UTC
Viento 6 kt del norte, variando entre norte-noroeste y noreste
Temperatura 23°C
Humedad 73%
Presión 1012 hPa

METAR: DTTL 061700Z AUTO 36006KT 330V050 NCD 23/18 Q1012

Hora: 18:45 (17:45 UTC)


TAF: falta

Observaciones y pronósticos meteorológicos de más de 4000 aeropuertos (mensajes METAR y TAF).

Los puntos amarillos y rojos representan las estaciones disponibles.

Ponga el ratón en el punto deseado para ver el nombre de la estación.

Haga clic para ver las observaciones y los pronósticos meteorológicos.

Para cambiar el mapa : haga clic en los botones verdes con una cruz de color negro para hacer un zoom, en el botón verde con un guión para alejar o en las flechas verdes para mapas adyacentes.


METAR-TAF: